Time;durP1;ratioP1;P1;durP2;ratioP2;P2;SDS_P1;SDS_P2;PMS_P1;PMS_P2;Temp;Humidity;BMP_temperature;BMP_pressure;BME280_temperature;BME280_humidity;BME280_pressure;Samples;Min_cycle;Max_cycle;Signal;HPM_P1;HPM_P2
2022/08/05 00:01:40;;;;;;;4.55;1.90;;;;;;;25.86;31.78;95362.47;4970626;28;20199;-79
2022/08/05 00:04:05;;;;;;;1.90;1.80;;;;;;;25.87;31.99;95361.41;4962418;28;20235;-79
2022/08/05 00:06:31;;;;;;;2.15;1.95;;;;;;;26.00;31.53;95365.56;4958261;28;20203;-80
2022/08/05 00:08:56;;;;;;;2.22;2.03;;;;;;;26.05;31.83;95362.94;4985679;28;20188;-80
2022/08/05 00:11:21;;;;;;;2.33;2.00;;;;;;;25.99;31.73;95366.63;4981852;28;20192;-80
2022/08/05 00:13:47;;;;;;;2.70;1.88;;;;;;;26.07;31.48;95368.06;4989294;28;20620;-80
2022/08/05 00:16:13;;;;;;;2.63;1.75;;;;;;;26.13;31.64;95372.34;4963354;28;20199;-80
2022/08/05 00:18:44;;;;;;;2.58;1.90;;;;;;;26.11;31.82;95369.16;4985488;28;20589;-80
2022/08/05 00:21:10;;;;;;;2.25;1.95;;;;;;;26.13;31.99;95375.03;4971986;28;20195;-80
2022/08/05 00:23:36;;;;;;;3.15;2.05;;;;;;;26.09;31.49;95377.38;4951068;28;20208;-80
2022/08/05 00:26:03;;;;;;;2.45;2.25;;;;;;;26.09;31.53;95374.72;4968231;28;20192;-80
2022/08/05 00:28:28;;;;;;;2.20;2.00;;;;;;;26.10;32.17;95381.66;4968943;28;20200;-80
2022/08/05 00:30:53;;;;;;;2.75;1.90;;;;;;;26.12;31.89;95403.47;4970254;28;20192;-81
2022/08/05 00:33:19;;;;;;;2.90;2.15;;;;;;;26.04;31.52;95411.91;4969279;28;20215;-80
2022/08/05 00:35:44;;;;;;;3.45;2.03;;;;;;;25.86;31.94;95423.66;4968136;28;20200;-79
2022/08/05 00:38:09;;;;;;;3.95;2.50;;;;;;;25.73;33.29;95421.34;4966467;28;20196;-80
2022/08/05 00:40:45;;;;;;;2.20;2.10;;;;;;;25.61;34.80;95426.72;4987653;28;20198;-80
2022/08/05 00:43:10;;;;;;;4.60;2.50;;;;;;;25.46;35.65;95434.50;4977206;28;20203;-80
2022/08/05 00:45:36;;;;;;;4.45;2.42;;;;;;;25.37;36.13;95434.09;4950200;28;20299;-80
2022/08/05 00:48:01;;;;;;;5.22;2.40;;;;;;;25.30;36.71;95427.34;4989105;28;20213;-80
2022/08/05 00:50:26;;;;;;;6.28;2.83;;;;;;;25.21;36.75;95428.78;4968336;28;20242;-80
2022/08/05 00:52:52;;;;;;;5.63;2.72;;;;;;;25.06;37.01;95424.84;4986299;28;20207;-80
2022/08/05 00:55:20;;;;;;;5.47;2.50;;;;;;;25.01;37.75;95416.78;4974133;28;20300;-80
2022/08/05 00:57:45;;;;;;;6.22;2.83;;;;;;;24.99;37.67;95418.03;4970815;28;20239;-80
2022/08/05 01:00:11;;;;;;;4.10;2.60;;;;;;;24.86;38.24;95413.84;4967208;28;20208;-80
2022/08/05 01:02:36;;;;;;;5.80;2.63;;;;;;;24.87;38.65;95420.78;4952982;28;20190;-80
2022/08/05 01:05:02;;;;;;;6.10;2.38;;;;;;;24.85;38.65;95410.41;4967422;28;20207;-81
2022/08/05 01:07:27;;;;;;;5.57;2.60;;;;;;;24.82;38.49;95416.16;4967651;28;20199;-79
2022/08/05 01:09:53;;;;;;;6.78;2.97;;;;;;;24.82;38.82;95423.31;4967079;28;20188;-80
2022/08/05 01:12:19;;;;;;;4.15;2.70;;;;;;;24.75;39.13;95428.81;4966992;28;20228;-80
2022/08/05 01:14:57;;;;;;;7.30;3.00;;;;;;;24.63;39.59;95446.63;4977597;28;20302;-80
2022/08/05 01:17:36;;;;;;;4.32;2.85;;;;;;;24.61;39.40;95448.72;4968525;28;20723;-80
2022/08/05 01:20:18;;;;;;;5.32;2.60;;;;;;;24.54;39.34;95448.06;4973089;28;20319;-79
2022/08/05 01:23:08;;;;;;;3.90;2.83;;;;;;;24.46;39.37;95443.94;4956619;28;20195;-80
2022/08/05 01:25:39;;;;;;;7.15;3.08;;;;;;;24.40;39.85;95444.09;4970986;28;20540;-80
2022/08/05 01:28:36;;;;;;;4.93;2.83;;;;;;;24.37;39.78;95437.38;4983883;28;20216;-79
2022/08/05 01:31:14;;;;;;;4.80;2.63;;;;;;;24.31;39.61;95435.66;4957505;28;20988;-79
2022/08/05 01:33:49;;;;;;;3.67;2.70;;;;;;;24.30;39.52;95428.75;4977125;28;20199;-79
2022/08/05 01:36:17;;;;;;;6.72;2.38;;;;;;;24.25;39.49;95433.94;4966658;28;20192;-80
2022/08/05 01:38:45;;;;;;;5.93;2.67;;;;;;;24.23;39.69;95426.22;4972308;28;20183;-80
2022/08/05 01:41:13;;;;;;;4.40;2.80;;;;;;;24.10;40.64;95421.19;4968606;28;20187;-79
2022/08/05 01:43:39;;;;;;;6.65;2.58;;;;;;;24.04;41.00;95424.78;4991989;28;20240;-79
2022/08/05 01:46:04;;;;;;;3.58;2.58;;;;;;;23.99;41.00;95422.03;5009336;28;20196;-79
2022/08/05 01:48:30;;;;;;;4.40;2.60;;;;;;;23.84;41.72;95430.44;5001000;28;20376;-78
2022/08/05 01:50:56;;;;;;;4.75;3.00;;;;;;;23.86;42.40;95431.06;4990059;28;20180;-78
2022/08/05 01:53:22;;;;;;;3.45;2.95;;;;;;;23.84;43.11;95442.91;4999568;28;20191;-78
2022/08/05 01:55:48;;;;;;;3.33;2.60;;;;;;;23.77;43.50;95435.09;4986589;28;20211;-80
2022/08/05 01:58:15;;;;;;;4.10;2.97;;;;;;;23.73;43.65;95433.94;4966147;28;20188;-80
2022/08/05 02:00:43;;;;;;;6.85;2.95;;;;;;;23.66;44.60;95431.41;4992003;28;20202;-79
2022/08/05 02:03:37;;;;;;;6.65;3.08;;;;;;;23.61;45.35;95431.31;4957971;28;20238;-79
2022/08/05 02:06:04;;;;;;;4.03;2.90;;;;;;;23.60;45.83;95431.53;4971936;28;20282;-79
2022/08/05 02:08:33;;;;;;;6.80;3.10;;;;;;;23.60;46.08;95431.53;4967111;28;20196;-79
2022/08/05 02:11:04;;;;;;;12.52;3.60;;;;;;;23.55;46.63;95428.72;4985754;28;20184;-80
2022/08/05 02:13:43;;;;;;;8.00;3.75;;;;;;;23.52;46.86;95421.25;4955250;28;20212;-79
2022/08/05 02:16:25;;;;;;;4.60;3.30;;;;;;;23.55;47.31;95426.88;4958132;28;20713;-80
2022/08/05 02:19:09;;;;;;;5.97;3.63;;;;;;;23.55;47.60;95423.44;4965392;28;20216;-80
2022/08/05 02:21:42;;;;;;;9.85;3.53;;;;;;;23.50;48.11;95420.66;4976459;28;20206;-79
2022/08/05 02:24:10;;;;;;;6.65;3.28;;;;;;;23.49;48.73;95413.75;4949273;28;20211;-79
2022/08/05 02:26:45;;;;;;;7.43;3.50;;;;;;;23.50;48.77;95428.59;4967107;28;20195;-78
2022/08/05 02:29:12;;;;;;;9.73;3.50;;;;;;;23.40;49.42;95427.34;4974715;28;20222;-79
2022/08/05 02:31:37;;;;;;;5.90;3.45;;;;;;;23.44;49.48;95435.66;4966245;28;20263;-81
2022/08/05 02:34:06;;;;;;;8.27;3.60;;;;;;;23.43;49.27;95450.75;4952721;28;20211;-80
2022/08/05 02:36:34;;;;;;;7.47;3.83;;;;;;;23.49;49.35;95451.66;4961847;28;20567;-80
2022/08/05 02:39:02;;;;;;;7.05;3.65;;;;;;;23.38;50.12;95455.91;4973618;28;20184;-80
2022/08/05 02:41:27;;;;;;;12.10;3.97;;;;;;;23.36;50.39;95467.78;4961506;28;20295;-80
2022/08/05 02:43:55;;;;;;;7.63;3.55;;;;;;;23.32;50.84;95461.31;4973850;28;20311;-80
2022/08/05 02:46:20;;;;;;;7.95;3.90;;;;;;;23.35;50.88;95469.63;4965605;28;20304;-79
2022/08/05 02:48:46;;;;;;;5.13;3.65;;;;;;;23.39;50.39;95470.78;4953571;28;20220;-80
2022/08/05 02:51:12;;;;;;;7.32;3.65;;;;;;;23.32;51.55;95471.91;4968246;28;20631;-80
2022/08/05 02:53:38;;;;;;;10.20;3.97;;;;;;;23.36;51.14;95465.13;4959757;28;20214;-80
2022/08/05 02:56:04;;;;;;;13.02;3.92;;;;;;;23.34;51.33;95462.72;4968605;28;20243;-80
2022/08/05 02:58:29;;;;;;;9.43;4.10;;;;;;;23.42;51.56;95467.69;4970759;28;20579;-80
2022/08/05 03:00:56;;;;;;;9.70;4.10;;;;;;;23.31;51.99;95467.66;4972891;28;20278;-80
2022/08/05 03:03:21;;;;;;;8.05;4.20;;;;;;;23.35;51.97;95464.34;4963244;28;20212;-80
2022/08/05 03:05:47;;;;;;;8.55;3.72;;;;;;;23.35;52.26;95460.88;4994022;28;20196;-80
2022/08/05 03:08:15;;;;;;;9.52;3.97;;;;;;;23.42;52.47;95462.38;4973221;28;20198;-79
2022/08/05 03:10:42;;;;;;;10.88;4.40;;;;;;;23.35;53.29;95452.94;4970579;28;20271;-79
2022/08/05 03:13:14;;;;;;;8.00;4.05;;;;;;;23.31;53.17;95452.56;4958099;28;20212;-80
2022/08/05 03:15:44;;;;;;;10.43;4.20;;;;;;;23.36;53.15;95450.03;4972627;28;20213;-80
2022/08/05 03:18:09;;;;;;;7.65;4.40;;;;;;;23.36;53.20;95447.41;4973675;28;20597;-80
2022/08/05 03:20:35;;;;;;;6.95;3.90;;;;;;;23.30;53.28;95437.72;4965320;28;20274;-80
2022/08/05 03:23:01;;;;;;;9.77;4.22;;;;;;;23.31;53.03;95433.22;4979834;28;20204;-81
2022/08/05 03:25:26;;;;;;;12.35;4.47;;;;;;;23.23;53.11;95430.91;4954720;28;20691;-80
2022/08/05 03:27:53;;;;;;;4.65;3.88;;;;;;;23.20;53.28;95424.22;4969080;28;20207;-80
2022/08/05 03:30:18;;;;;;;9.27;4.30;;;;;;;23.14;53.80;95425.13;4970297;28;20193;-80
2022/08/05 03:32:44;;;;;;;6.75;3.60;;;;;;;23.12;53.77;95427.22;4971525;28;20557;-80
2022/08/05 03:35:10;;;;;;;7.55;4.22;;;;;;;23.12;53.75;95421.91;4981325;28;20223;-80
2022/08/05 03:37:35;;;;;;;6.63;3.95;;;;;;;23.08;54.15;95421.56;4954158;28;20192;-80
2022/08/05 03:40:02;;;;;;;7.40;3.75;;;;;;;22.98;55.03;95421.34;4962176;28;20219;-81
2022/08/05 03:42:28;;;;;;;9.40;4.20;;;;;;;22.91;54.97;95423.28;4972399;28;20192;-79
2022/08/05 03:44:53;;;;;;;7.28;3.92;;;;;;;22.89;54.97;95423.50;4963967;28;20580;-80
2022/08/05 03:47:19;;;;;;;8.40;4.30;;;;;;;22.80;55.53;95414.25;4979026;28;20200;-80
2022/08/05 03:49:44;;;;;;;6.57;4.20;;;;;;;22.86;55.22;95413.34;4978776;28;20341;-80
2022/08/05 03:52:11;;;;;;;9.52;4.55;;;;;;;22.67;56.33;95425.03;4969752;28;20223;-80
2022/08/05 03:54:52;;;;;;;7.72;4.28;;;;;;;22.71;55.88;95439.44;4970332;28;20223;-80
2022/08/05 03:57:21;;;;;;;7.18;3.90;;;;;;;22.74;55.77;95452.19;4989339;28;20208;-80
2022/08/05 03:59:50;;;;;;;11.10;5.18;;;;;;;22.74;56.37;95454.84;4970891;28;20243;-80
2022/08/05 04:02:17;;;;;;;7.63;4.50;;;;;;;22.76;56.07;95471.31;4993764;28;20184;-80
2022/08/05 04:04:43;;;;;;;10.90;4.63;;;;;;;22.77;55.71;95480.06;4969981;28;20219;-79
2022/08/05 04:07:09;;;;;;;6.80;4.30;;;;;;;22.79;56.02;95493.88;4968540;28;20710;-80
2022/08/05 04:09:34;;;;;;;9.45;4.35;;;;;;;22.80;55.96;95500.81;4952266;28;20204;-80
2022/08/05 04:12:00;;;;;;;6.75;3.78;;;;;;;22.83;56.14;95508.28;4970720;28;20180;-79
2022/08/05 04:14:26;;;;;;;9.32;3.95;;;;;;;22.82;56.16;95511.97;4966462;28;20220;-80
2022/08/05 04:16:52;;;;;;;7.10;3.70;;;;;;;22.78;56.00;95506.31;4952157;28;20212;-79
2022/08/05 04:19:17;;;;;;;7.45;3.85;;;;;;;22.76;56.30;95512.84;4994595;28;20212;-80
2022/08/05 04:21:42;;;;;;;5.82;4.18;;;;;;;22.76;55.87;95520.81;4961965;28;20207;-80
2022/08/05 04:24:08;;;;;;;11.82;4.53;;;;;;;22.77;56.25;95540.94;4969823;28;20211;-79
2022/08/05 04:26:33;;;;;;;7.60;4.10;;;;;;;22.82;56.00;95546.38;4977808;28;20187;-78
2022/08/05 04:28:59;;;;;;;8.15;4.15;;;;;;;22.94;55.75;95543.81;4968968;28;20283;-80
2022/08/05 04:31:25;;;;;;;8.75;4.10;;;;;;;22.96;55.93;95537.25;4991828;28;20189;-79
2022/08/05 04:33:50;;;;;;;6.15;4.55;;;;;;;23.05;55.28;95538.53;4987761;28;20203;-79
2022/08/05 04:36:16;;;;;;;8.40;4.55;;;;;;;23.09;55.39;95563.56;4962181;28;20200;-78
2022/08/05 04:38:42;;;;;;;5.80;4.28;;;;;;;23.23;54.99;95555.41;4985846;28;20200;-79
2022/08/05 04:41:07;;;;;;;7.03;4.45;;;;;;;23.40;54.37;95580.22;4977387;28;20184;-79
2022/08/05 04:43:33;;;;;;;8.68;4.40;;;;;;;23.51;54.38;95600.66;4961225;28;20220;-78
2022/08/05 04:45:58;;;;;;;6.13;3.85;;;;;;;23.71;53.11;95617.09;4985924;28;20545;-79
2022/08/05 04:48:23;;;;;;;10.52;4.30;;;;;;;23.84;52.87;95642.59;4978623;28;20557;-79
2022/08/05 04:50:48;;;;;;;6.75;3.78;;;;;;;23.90;52.65;95651.50;4984987;28;20184;-78
2022/08/05 04:53:15;;;;;;;5.93;4.00;;;;;;;24.07;51.92;95662.25;4986004;28;20214;-79
2022/08/05 04:55:42;;;;;;;8.02;4.20;;;;;;;24.07;52.53;95648.97;4969371;28;20263;-79
2022/08/05 04:58:10;;;;;;;8.95;4.00;;;;;;;24.38;53.45;95642.53;4988192;28;20184;-79
2022/08/05 05:00:36;;;;;;;5.13;4.63;;;;;;;24.22;54.97;95657.31;4975572;28;20266;-78
2022/08/05 05:03:03;;;;;;;10.10;4.97;;;;;;;24.10;56.25;95669.72;4976439;28;20214;-78
2022/08/05 05:05:29;;;;;;;9.07;4.82;;;;;;;23.84;59.11;95682.38;4965405;28;20204;-78
2022/08/05 05:07:58;;;;;;;6.20;5.35;;;;;;;23.69;61.12;95689.94;4969851;28;20660;-79
2022/08/05 05:10:24;;;;;;;7.45;5.22;;;;;;;23.39;61.42;95680.13;4978504;28;20180;-79
2022/08/05 05:12:49;;;;;;;7.25;5.55;;;;;;;23.48;61.65;95672.66;4970845;28;20230;-79
2022/08/05 05:15:14;;;;;;;9.73;6.10;;;;;;;23.43;62.78;95681.31;4983285;28;20188;-79
2022/08/05 05:17:42;;;;;;;6.22;5.20;;;;;;;23.37;62.90;95673.44;4968855;28;20552;-79
2022/08/05 05:20:08;;;;;;;8.75;5.57;;;;;;;23.27;62.76;95671.31;4983122;28;20216;-78
2022/08/05 05:22:34;;;;;;;6.38;5.47;;;;;;;23.27;62.79;95675.81;4967948;28;20191;-80
2022/08/05 05:24:59;;;;;;;6.45;5.72;;;;;;;23.09;63.61;95682.75;4985604;28;20283;-78
2022/08/05 05:27:33;;;;;;;7.45;5.80;;;;;;;23.13;63.76;95685.75;4965190;28;20206;-79
2022/08/05 05:29:58;;;;;;;8.20;5.80;;;;;;;23.11;64.24;95693.94;4975303;28;20202;-78
2022/08/05 05:32:23;;;;;;;11.55;6.25;;;;;;;23.74;61.92;95701.47;4990752;28;20365;-79
2022/08/05 05:34:49;;;;;;;11.07;6.22;;;;;;;24.53;59.33;95698.63;4966615;28;20212;-78
2022/08/05 05:37:14;;;;;;;11.32;5.30;;;;;;;25.24;56.42;95694.84;4967708;28;20202;-78
2022/08/05 05:39:46;;;;;;;7.13;5.32;;;;;;;25.12;56.25;95697.56;5061601;28;20627;-79
2022/08/05 05:42:12;;;;;;;9.25;5.05;;;;;;;25.30;56.07;95704.56;5058898;28;20208;-78
2022/08/05 05:44:40;;;;;;;8.38;5.13;;;;;;;25.43;56.22;95706.94;5058108;28;20197;-79
2022/08/05 05:47:05;;;;;;;7.53;5.03;;;;;;;26.01;53.13;95707.75;5051093;28;20190;-79
2022/08/05 05:49:31;;;;;;;8.02;4.63;;;;;;;26.84;50.84;95698.13;5038895;28;20244;-77
2022/08/05 05:51:56;;;;;;;7.15;4.40;;;;;;;27.55;48.14;95685.66;5041180;28;20186;-79
2022/08/05 05:54:22;;;;;;;5.80;4.38;;;;;;;28.17;46.50;95687.06;5036109;28;20206;-79
2022/08/05 05:56:47;;;;;;;5.40;4.18;;;;;;;29.71;41.75;95681.53;5040019;28;20185;-79
2022/08/05 05:59:12;;;;;;;6.80;3.65;;;;;;;29.72;41.28;95659.88;5055938;28;20205;-78
2022/08/05 06:01:40;;;;;;;7.05;3.78;;;;;;;30.84;37.91;95653.69;5037350;28;20397;-79
2022/08/05 06:04:10;;;;;;;7.80;3.78;;;;;;;30.08;39.06;95650.00;5038045;28;20281;-79
2022/08/05 06:06:35;;;;;;;6.78;3.80;;;;;;;30.37;39.25;95655.63;5039616;28;20184;-80
2022/08/05 06:09:03;;;;;;;4.25;3.70;;;;;;;30.01;40.17;95673.53;5033465;28;20187;-79
2022/08/05 06:11:28;;;;;;;4.20;3.75;;;;;;;28.70;43.60;95680.00;5038345;28;20557;-79
2022/08/05 06:13:53;;;;;;;4.30;3.63;;;;;;;29.04;43.21;95685.81;5047325;28;20221;-79
2022/08/05 06:16:19;;;;;;;8.18;3.90;;;;;;;28.63;43.13;95690.13;5037172;28;20198;-79
2022/08/05 06:18:44;;;;;;;15.18;4.45;;;;;;;27.70;45.76;95677.06;5038725;28;20202;-78
2022/08/05 06:21:09;;;;;;;6.65;3.40;;;;;;;27.01;47.44;95674.09;5055773;28;20187;-80
2022/08/05 06:23:35;;;;;;;5.70;4.10;;;;;;;26.13;49.59;95671.22;5017433;28;20270;-79
2022/08/05 06:26:00;;;;;;;8.95;3.63;;;;;;;25.89;50.59;95678.56;5022414;28;20190;-79
2022/08/05 06:28:25;;;;;;;5.07;3.72;;;;;;;25.70;51.69;95679.75;5040422;28;20193;-80
2022/08/05 06:30:50;;;;;;;4.40;3.92;;;;;;;25.49;53.62;95685.78;5038559;28;20593;-79
2022/08/05 06:33:16;;;;;;;6.28;3.60;;;;;;;25.12;54.32;95689.59;5039765;28;20225;-79
2022/08/05 06:35:41;;;;;;;4.95;3.45;;;;;;;25.05;53.28;95688.91;5047146;28;20193;-79
2022/08/05 06:38:06;;;;;;;6.65;3.10;;;;;;;24.96;53.42;95687.63;5035871;28;20216;-79
2022/08/05 06:40:31;;;;;;;7.68;3.50;;;;;;;25.08;52.56;95699.06;5023348;28;20197;-79
2022/08/05 06:42:57;;;;;;;5.13;2.85;;;;;;;25.13;51.22;95699.16;5052412;28;20205;-78
2022/08/05 06:45:22;;;;;;;3.22;2.85;;;;;;;27.44;46.03;95715.97;5047468;28;20213;-79
2022/08/05 06:47:47;;;;;;;4.32;2.97;;;;;;;29.25;40.88;95716.16;5036700;28;20213;-78
2022/08/05 06:50:13;;;;;;;3.92;2.53;;;;;;;29.75;40.01;95712.06;5031359;28;20190;-79
2022/08/05 06:52:38;;;;;;;4.05;2.75;;;;;;;30.26;36.83;95722.88;5026253;28;20837;-80
2022/08/05 06:55:04;;;;;;;2.65;2.03;;;;;;;30.94;34.86;95728.75;5023191;28;20194;-79
2022/08/05 06:57:29;;;;;;;2.85;2.03;;;;;;;30.66;34.32;95732.81;5033806;28;20229;-80
2022/08/05 06:59:55;;;;;;;1.85;1.70;;;;;;;30.26;35.95;95737.06;5025803;28;20197;-79
2022/08/05 07:02:20;;;;;;;3.85;2.40;;;;;;;30.34;36.63;95741.88;5007432;28;20199;-79
2022/08/05 07:04:45;;;;;;;3.20;2.10;;;;;;;29.71;36.69;95749.25;5033703;28;20293;-80
2022/08/05 07:07:10;;;;;;;2.30;2.10;;;;;;;29.84;36.02;95750.63;5040799;28;20199;-78
2022/08/05 07:09:36;;;;;;;3.33;2.10;;;;;;;30.07;36.02;95750.16;5024107;28;20194;-79
2022/08/05 07:12:01;;;;;;;2.53;2.13;;;;;;;30.92;33.92;95746.94;5042304;28;20182;-79
2022/08/05 07:17:11;;;;;;;2.40;2.20;;;;;;;31.93;32.80;95750.41;5019752;28;20183;-79
2022/08/05 07:19:36;;;;;;;2.55;2.08;;;;;;;31.94;32.06;95757.38;5024113;28;20206;-79
2022/08/05 07:22:01;;;;;;;4.18;2.38;;;;;;;31.98;33.20;95763.78;5025302;28;20195;-79
2022/08/05 07:24:27;;;;;;;2.40;1.85;;;;;;;30.69;34.15;95767.91;5022212;28;20207;-79
2022/08/05 07:26:52;;;;;;;2.20;2.00;;;;;;;30.49;33.74;95767.88;5024929;28;20190;-79
2022/08/05 07:29:17;;;;;;;2.97;2.00;;;;;;;28.96;37.01;95763.84;5026183;28;20729;-79
2022/08/05 07:31:43;;;;;;;2.95;2.08;;;;;;;29.18;36.63;95769.06;5022436;28;20187;-79
2022/08/05 07:34:08;;;;;;;5.30;2.55;;;;;;;30.87;33.18;95771.91;5024591;28;20689;-78
2022/08/05 07:36:34;;;;;;;3.13;2.13;;;;;;;31.27;32.88;95779.09;5024108;28;20199;-79
2022/08/05 07:39:01;;;;;;;3.67;2.20;;;;;;;31.54;32.12;95786.81;5021710;28;20270;-79
2022/08/05 07:41:26;;;;;;;2.35;2.15;;;;;;;31.41;31.71;95792.75;5005713;28;20190;-80
2022/08/05 07:43:52;;;;;;;2.95;2.08;;;;;;;31.23;32.04;95779.91;5040378;28;20222;-78
2022/08/05 07:46:18;;;;;;;5.60;2.17;;;;;;;30.02;33.45;95778.75;5018324;28;20184;-79
2022/08/05 07:48:43;;;;;;;2.30;2.10;;;;;;;29.95;33.23;95779.03;5026422;28;20685;-79
2022/08/05 07:51:08;;;;;;;3.15;2.10;;;;;;;29.33;34.98;95775.31;5024317;28;20186;-80
2022/08/05 07:53:35;;;;;;;2.50;1.95;;;;;;;29.52;35.11;95767.66;5024374;28;20576;-78
2022/08/05 07:56:01;;;;;;;2.40;2.00;;;;;;;29.32;33.92;95759.50;5022078;28;20199;-79
2022/08/05 07:58:26;;;;;;;2.17;1.92;;;;;;;29.65;33.56;95762.88;5023752;28;20241;-79
2022/08/05 08:00:51;;;;;;;2.50;1.85;;;;;;;29.29;34.52;95763.50;5023568;28;20213;-79
2022/08/05 08:03:17;;;;;;;2.03;1.83;;;;;;;29.14;34.74;95767.94;5022002;28;20203;-79
2022/08/05 08:05:43;;;;;;;3.25;2.10;;;;;;;28.21;36.36;95752.28;5025236;28;20187;-80
2022/08/05 08:08:12;;;;;;;2.15;1.90;;;;;;;28.52;36.63;95753.34;5025480;28;20563;-80
2022/08/05 08:10:38;;;;;;;2.80;1.90;;;;;;;28.74;36.28;95743.38;5023951;28;20186;-80
2022/08/05 08:13:03;;;;;;;2.47;1.92;;;;;;;28.48;37.37;95746.91;5009226;28;20202;-80
2022/08/05 08:15:28;;;;;;;3.30;2.05;;;;;;;28.50;36.50;95740.25;5043001;28;20190;-79
2022/08/05 08:17:54;;;;;;;2.20;2.03;;;;;;;28.58;36.47;95738.19;5036780;28;20207;-77
2022/08/05 08:20:23;;;;;;;2.90;2.70;;;;;;;27.74;37.13;95739.53;5040282;28;20613;-79
2022/08/05 08:22:56;;;;;;;4.20;2.30;;;;;;;27.84;37.50;95720.16;5055907;28;20194;-78
2022/08/05 08:25:22;;;;;;;3.03;2.15;;;;;;;27.71;37.42;95720.56;5049453;28;20172;-78
2022/08/05 08:27:47;;;;;;;2.33;2.13;;;;;;;27.33;38.38;95719.56;5037207;28;20183;-77
2022/08/05 08:30:14;;;;;;;2.03;1.92;;;;;;;27.71;38.27;95718.69;5047147;28;20198;-77
2022/08/05 08:32:39;;;;;;;5.38;2.50;;;;;;;27.42;38.14;95719.94;5050684;28;20210;-79
2022/08/05 08:35:06;;;;;;;2.65;2.10;;;;;;;27.83;38.03;95707.84;5044338;28;20186;-79
2022/08/05 08:37:31;;;;;;;2.85;2.22;;;;;;;27.61;38.13;95707.88;5046985;28;20243;-77
2022/08/05 08:39:56;;;;;;;2.35;2.15;;;;;;;27.65;37.60;95708.97;5044178;28;20195;-78
2022/08/05 08:42:22;;;;;;;2.42;2.20;;;;;;;27.57;38.38;95712.13;5045881;28;20186;-77
2022/08/05 08:44:48;;;;;;;2.78;2.20;;;;;;;27.54;38.03;95694.72;5063892;28;20205;-77
2022/08/05 08:47:14;;;;;;;4.57;2.60;;;;;;;27.70;37.55;95692.25;5031852;28;20227;-77
2022/08/05 08:49:41;;;;;;;4.00;2.40;;;;;;;28.12;36.50;95689.72;5043045;28;20210;-78
2022/08/05 08:52:12;;;;;;;3.17;2.70;;;;;;;27.70;37.74;95693.06;5035251;28;20179;-79
2022/08/05 08:54:37;;;;;;;2.55;2.13;;;;;;;28.12;36.72;95689.72;5027782;28;20204;-79
2022/08/05 08:57:05;;;;;;;2.55;2.35;;;;;;;28.40;36.32;95676.09;5030205;28;20183;-80
2022/08/05 08:59:30;;;;;;;3.83;2.35;;;;;;;27.84;37.17;95666.78;5025734;28;20233;-79
2022/08/05 09:01:56;;;;;;;3.50;2.13;;;;;;;28.10;36.76;95670.50;5032873;28;20191;-79
2022/08/05 09:04:21;;;;;;;2.40;2.17;;;;;;;28.35;36.13;95670.69;5006517;28;20202;-80
2022/08/05 09:06:47;;;;;;;3.33;2.13;;;;;;;28.31;35.88;95672.28;5041958;28;20260;-79
2022/08/05 09:09:12;;;;;;;6.22;2.33;;;;;;;28.44;35.52;95676.34;5022656;28;20646;-79
2022/08/05 09:11:37;;;;;;;3.95;2.10;;;;;;;28.42;35.03;95670.47;5024597;28;20179;-80
2022/08/05 09:14:03;;;;;;;2.55;2.08;;;;;;;28.75;34.84;95666.69;5024088;28;20214;-80
2022/08/05 09:16:29;;;;;;;2.20;2.00;;;;;;;28.97;33.86;95666.53;5022248;28;20183;-80
2022/08/05 09:18:54;;;;;;;2.45;1.90;;;;;;;28.99;34.19;95665.25;5024429;28;20225;-79
2022/08/05 09:21:21;;;;;;;3.42;1.95;;;;;;;28.82;33.91;95661.91;5025259;28;20191;-79
2022/08/05 09:24:01;;;;;;;2.28;1.88;;;;;;;29.16;33.13;95659.69;5032869;28;20587;-80
2022/08/05 09:26:26;;;;;;;2.15;1.92;;;;;;;28.93;33.18;95650.22;5034441;28;20194;-79
2022/08/05 09:28:53;;;;;;;2.03;1.83;;;;;;;28.93;33.10;95655.56;5020181;28;20215;-80
2022/08/05 09:31:18;;;;;;;3.00;2.15;;;;;;;28.89;33.31;95662.53;5023972;28;20186;-79
2022/08/05 09:33:50;;;;;;;2.80;2.10;;;;;;;28.13;35.72;95660.09;5040229;28;20581;-80
2022/08/05 09:36:16;;;;;;;3.67;2.00;;;;;;;28.86;34.09;95663.00;5036061;28;20183;-79
2022/08/05 09:39:02;;;;;;;2.17;1.98;;;;;;;29.01;34.69;95671.13;5022090;28;20648;-79
2022/08/05 09:41:27;;;;;;;2.55;2.35;;;;;;;28.82;34.41;95661.91;5039275;28;20181;-80
2022/08/05 09:43:53;;;;;;;2.58;1.90;;;;;;;29.20;33.77;95668.78;5021748;28;21068;-80
2022/08/05 09:46:29;;;;;;;2.78;2.22;;;;;;;29.70;32.30;95682.63;5025596;28;20273;-80
2022/08/05 09:48:56;;;;;;;2.33;2.00;;;;;;;29.77;31.92;95675.13;5008781;28;20186;-79
2022/08/05 09:51:38;;;;;;;2.40;2.20;;;;;;;29.47;32.79;95678.50;5039200;28;20187;-79
2022/08/05 09:54:07;;;;;;;3.70;2.05;;;;;;;29.29;33.61;95666.41;5013546;28;20230;-79
2022/08/05 09:56:34;;;;;;;4.30;2.33;;;;;;;29.70;33.01;95670.03;5029445;28;20193;-80
2022/08/05 09:59:08;;;;;;;2.88;2.42;;;;;;;30.14;31.17;95669.56;5013772;28;20222;-79
2022/08/05 10:01:35;;;;;;;3.83;1.95;;;;;;;29.98;31.47;95676.75;5023220;28;20651;-79
2022/08/05 10:04:11;;;;;;;3.20;2.00;;;;;;;29.46;32.55;95679.56;5025520;28;20765;-80
2022/08/05 10:06:39;;;;;;;2.13;2.00;;;;;;;29.91;32.47;95668.19;5007073;28;20281;-80
2022/08/05 10:09:13;;;;;;;2.10;1.90;;;;;;;29.83;31.72;95666.03;5022401;28;20194;-80
2022/08/05 10:11:39;;;;;;;2.47;2.13;;;;;;;29.81;32.09;95676.22;5006268;28;20187;-80
2022/08/05 10:14:24;;;;;;;2.17;1.98;;;;;;;29.97;31.98;95667.13;5032330;28;20214;-80
2022/08/05 10:16:49;;;;;;;2.22;1.95;;;;;;;30.02;31.31;95671.66;5030279;28;20217;-79
2022/08/05 10:19:15;;;;;;;2.78;1.88;;;;;;;29.41;31.80;95669.66;5023749;28;20232;-78
2022/08/05 10:21:41;;;;;;;2.28;1.98;;;;;;;29.50;32.51;95670.78;5024757;28;20805;-80
2022/08/05 10:24:12;;;;;;;2.22;1.75;;;;;;;29.88;32.22;95666.06;5020956;28;20207;-79
2022/08/05 10:26:39;;;;;;;2.20;2.08;;;;;;;29.76;32.46;95660.13;5039309;28;20187;-80
2022/08/05 10:29:06;;;;;;;2.95;2.03;;;;;;;29.91;31.60;95662.81;5026085;28;20687;-80
2022/08/05 10:31:31;;;;;;;2.08;1.88;;;;;;;30.03;31.70;95663.34;5045195;28;20183;-80
2022/08/05 10:33:57;;;;;;;2.83;2.28;;;;;;;30.03;31.29;95667.91;5041700;28;20205;-80
2022/08/05 10:36:22;;;;;;;2.60;1.98;;;;;;;29.82;31.69;95667.09;5026265;28;20190;-80
2022/08/05 10:38:49;;;;;;;2.40;2.20;;;;;;;29.51;32.18;95663.59;5042689;28;20336;-79
2022/08/05 10:41:22;;;;;;;2.20;2.00;;;;;;;29.51;32.14;95667.06;5034967;28;20187;-80
2022/08/05 10:43:56;;;;;;;2.17;1.80;;;;;;;30.10;31.05;95660.44;5004947;28;20228;-78
2022/08/05 10:46:21;;;;;;;3.40;2.20;;;;;;;29.53;32.41;95648.06;5026165;28;20201;-79
2022/08/05 10:48:55;;;;;;;3.95;2.25;;;;;;;29.76;32.61;95654.78;5028226;28;20639;-79
2022/08/05 10:51:21;;;;;;;2.58;2.13;;;;;;;30.17;32.02;95648.41;5023327;28;20663;-80
2022/08/05 10:53:49;;;;;;;2.35;2.15;;;;;;;30.45;31.73;95657.75;5025003;28;20214;-80
2022/08/05 10:56:17;;;;;;;5.30;1.90;;;;;;;30.45;30.56;95667.66;5029389;28;20217;-79
2022/08/05 10:58:54;;;;;;;2.15;1.85;;;;;;;30.59;30.32;95658.00;5028242;28;20625;-79
2022/08/05 11:01:30;;;;;;;2.92;2.05;;;;;;;31.01;30.58;95654.97;5024360;28;20187;-80
2022/08/05 11:04:01;;;;;;;1.83;1.73;;;;;;;31.09;29.48;95656.25;5025007;28;20206;-79
2022/08/05 11:06:26;;;;;;;2.67;1.88;;;;;;;30.81;29.63;95656.91;5026407;28;20182;-79
2022/08/05 11:09:20;;;;;;;2.08;1.77;;;;;;;30.53;30.42;95656.41;5026928;28;20175;-80
2022/08/05 11:11:48;;;;;;;2.00;1.65;;;;;;;31.23;29.25;95656.53;5026068;28;20194;-79
2022/08/05 11:14:22;;;;;;;3.30;1.95;;;;;;;31.18;29.52;95659.97;5024507;28;20757;-79
2022/08/05 11:17:25;;;;;;;2.20;2.00;;;;;;;31.34;28.77;95658.06;5004402;28;20187;-80
2022/08/05 11:19:52;;;;;;;2.17;1.95;;;;;;;31.71;28.92;95667.50;5025281;28;20198;-80
2022/08/05 11:22:40;;;;;;;2.50;2.30;;;;;;;31.25;29.26;95662.41;5024825;28;20205;-80
2022/08/05 11:25:43;;;;;;;6.38;2.17;;;;;;;30.69;30.13;95658.00;5020544;28;20206;-79
2022/08/05 11:28:08;;;;;;;5.00;2.30;;;;;;;31.08;29.74;95659.22;5025191;28;20271;-79
2022/08/05 11:30:55;;;;;;;2.40;2.17;;;;;;;31.23;29.69;95667.25;5020531;28;20271;-79
2022/08/05 11:33:30;;;;;;;3.60;2.00;;;;;;;31.40;29.08;95669.59;5017940;28;20964;-80
2022/08/05 11:36:00;;;;;;;2.30;2.10;;;;;;;31.63;29.16;95670.78;5022822;28;20322;-78
2022/08/05 11:38:51;;;;;;;3.40;2.30;;;;;;;31.53;29.13;95675.13;5022062;28;20318;-80
2022/08/05 11:41:23;;;;;;;4.30;2.20;;;;;;;31.58;29.05;95669.75;5022104;28;20211;-80